createdAt,value
2023-11-30T00:01:06.358Z,64.37
2023-11-30T00:03:36.066Z,64.38
2023-11-30T00:06:03.816Z,64.33
2023-11-30T00:08:31.357Z,64.49
2023-11-30T00:10:59.360Z,64.74
2023-11-30T00:13:27.553Z,65.01
2023-11-30T00:15:55.213Z,65.00
2023-11-30T00:18:22.566Z,64.94
2023-11-30T00:20:50.151Z,65.17
2023-11-30T00:23:17.632Z,65.25
2023-11-30T00:25:45.307Z,65.23
2023-11-30T00:28:12.946Z,64.92
2023-11-30T00:30:41.416Z,64.85
2023-11-30T00:33:09.146Z,64.74
2023-11-30T00:35:36.808Z,64.66
2023-11-30T00:38:04.416Z,65.04
2023-11-30T00:40:32.648Z,64.86
2023-11-30T00:43:00.930Z,64.65
2023-11-30T00:45:28.699Z,64.79
2023-11-30T00:47:56.583Z,64.21
2023-11-30T00:50:24.035Z,64.35
2023-11-30T00:52:51.448Z,64.62
2023-11-30T00:55:19.103Z,65.03
2023-11-30T00:57:47.061Z,65.23
2023-11-30T01:00:15.429Z,65.34
2023-11-30T01:02:43.036Z,65.17
2023-11-30T01:05:10.618Z,65.14
2023-11-30T01:07:38.396Z,65.46
2023-11-30T01:10:07.946Z,65.34
2023-11-30T01:12:35.708Z,65.10
2023-11-30T01:15:04.745Z,65.33
2023-11-30T01:17:32.301Z,65.29
2023-11-30T01:19:59.852Z,65.64
2023-11-30T01:22:27.526Z,65.55
2023-11-30T01:24:55.044Z,65.26
2023-11-30T01:27:24.000Z,65.42
2023-11-30T01:29:51.669Z,65.36
2023-11-30T01:32:19.394Z,65.42
2023-11-30T01:34:48.599Z,65.42
2023-11-30T01:37:21.476Z,65.36
2023-11-30T01:39:54.405Z,65.29
2023-11-30T01:42:31.902Z,65.25
2023-11-30T01:45:06.981Z,65.28
2023-11-30T01:47:46.100Z,65.42
2023-11-30T01:50:24.024Z,65.64
2023-11-30T01:52:55.653Z,65.48
2023-11-30T01:55:28.130Z,65.15
2023-11-30T01:58:05.137Z,65.64
2023-11-30T02:00:40.917Z,65.39
2023-11-30T02:03:09.673Z,65.33
2023-11-30T02:05:38.456Z,65.53
2023-11-30T02:08:06.250Z,65.74
2023-11-30T02:10:33.769Z,65.66
2023-11-30T02:13:01.393Z,65.45
2023-11-30T02:15:29.542Z,65.51
2023-11-30T02:17:57.069Z,65.34
2023-11-30T02:20:24.604Z,65.12
2023-11-30T02:22:52.304Z,65.01
2023-11-30T02:25:19.755Z,65.12
2023-11-30T02:27:47.569Z,65.31
2023-11-30T02:30:16.401Z,65.43
2023-11-30T02:32:43.936Z,65.30
2023-11-30T02:35:11.465Z,65.46
2023-11-30T02:37:38.638Z,65.46
2023-11-30T02:40:08.014Z,65.54
2023-11-30T02:42:36.089Z,65.69
2023-11-30T02:45:04.408Z,65.88
2023-11-30T02:47:31.799Z,65.96
2023-11-30T02:49:59.263Z,65.92
2023-11-30T02:52:26.881Z,65.85
2023-11-30T02:54:54.162Z,65.74
2023-11-30T02:57:21.773Z,65.61
2023-11-30T02:59:49.383Z,65.56
2023-11-30T03:02:16.736Z,65.47
2023-11-30T03:04:45.720Z,65.50
2023-11-30T03:07:13.192Z,65.50
2023-11-30T03:09:40.852Z,65.48
2023-11-30T03:12:08.618Z,65.56
2023-11-30T03:14:36.306Z,65.62
2023-11-30T03:17:04.049Z,65.68
2023-11-30T03:19:31.587Z,65.74
2023-11-30T03:21:59.287Z,65.69
2023-11-30T03:24:27.915Z,65.86
2023-11-30T03:26:55.374Z,65.92
2023-11-30T03:29:23.047Z,66.00
2023-11-30T03:31:51.235Z,66.00
2023-11-30T03:34:18.575Z,66.26
2023-11-30T03:36:46.223Z,66.35
2023-11-30T03:39:14.014Z,66.28
2023-11-30T03:41:41.302Z,66.36
2023-11-30T03:44:08.897Z,66.39
2023-11-30T03:46:37.040Z,66.43
2023-11-30T03:49:04.573Z,66.58
2023-11-30T03:51:33.496Z,66.64
2023-11-30T03:54:01.419Z,66.81
2023-11-30T03:56:33.756Z,66.88
2023-11-30T03:59:01.093Z,66.91
2023-11-30T04:01:28.862Z,66.91
2023-11-30T04:03:56.261Z,66.79
2023-11-30T04:06:24.467Z,66.85
2023-11-30T04:08:53.413Z,67.07
2023-11-30T04:11:21.300Z,67.10
2023-11-30T04:13:49.409Z,67.34
2023-11-30T04:16:18.331Z,67.37
2023-11-30T04:18:46.028Z,67.35
2023-11-30T04:21:14.614Z,67.30
2023-11-30T04:23:42.416Z,67.44
2023-11-30T04:26:10.607Z,67.43
2023-11-30T04:28:38.334Z,67.37
2023-11-30T04:31:06.456Z,67.39
2023-11-30T04:33:34.835Z,67.54
2023-11-30T04:36:03.444Z,67.57
2023-11-30T04:38:31.280Z,67.63
2023-11-30T04:40:59.955Z,67.64
2023-11-30T04:43:27.405Z,67.73
2023-11-30T04:45:54.862Z,67.84
2023-11-30T04:48:22.279Z,67.83
2023-11-30T04:50:50.023Z,67.84
2023-11-30T04:53:17.936Z,67.80
2023-11-30T04:55:46.500Z,67.95
2023-11-30T04:58:14.716Z,67.93
2023-11-30T05:00:42.613Z,67.92
2023-11-30T05:03:10.106Z,68.12
2023-11-30T05:05:37.922Z,68.14
2023-11-30T05:08:05.357Z,68.06
2023-11-30T05:10:32.804Z,67.89
2023-11-30T05:13:00.199Z,67.89
2023-11-30T05:15:27.882Z,68.14
2023-11-30T05:17:55.187Z,68.23
2023-11-30T05:20:22.682Z,68.31
2023-11-30T05:22:51.029Z,68.27
2023-11-30T05:25:18.847Z,68.31
2023-11-30T05:27:46.321Z,68.22
2023-11-30T05:30:14.360Z,68.14
2023-11-30T05:32:42.168Z,68.13
2023-11-30T05:35:09.775Z,68.05
2023-11-30T05:37:37.391Z,68.06
2023-11-30T05:40:08.238Z,68.10
2023-11-30T05:42:36.154Z,68.07
2023-11-30T05:45:05.783Z,68.16
2023-11-30T05:47:33.236Z,68.07
2023-11-30T05:50:00.835Z,67.92
2023-11-30T05:52:28.292Z,67.80
2023-11-30T05:54:57.711Z,67.75
2023-11-30T05:57:24.917Z,67.83
2023-11-30T05:59:52.932Z,68.13
2023-11-30T06:02:22.333Z,68.06
2023-11-30T06:04:52.136Z,68.16
2023-11-30T06:07:20.878Z,68.39
2023-11-30T06:09:48.442Z,68.46
2023-11-30T06:12:16.240Z,68.33
2023-11-30T06:14:44.285Z,68.30
2023-11-30T06:17:12.835Z,68.33
2023-11-30T06:19:41.294Z,68.27
2023-11-30T06:22:09.149Z,68.13
2023-11-30T06:24:36.952Z,68.17
2023-11-30T06:27:07.694Z,68.38
2023-11-30T06:29:35.205Z,68.36
2023-11-30T06:32:03.688Z,68.27
2023-11-30T06:34:33.076Z,68.29
2023-11-30T06:37:00.792Z,68.42
2023-11-30T06:39:29.423Z,68.35
2023-11-30T06:41:57.121Z,68.30
2023-11-30T06:44:24.687Z,68.31
2023-11-30T06:46:52.067Z,68.17
2023-11-30T06:49:19.356Z,68.16
2023-11-30T06:51:46.711Z,68.01
2023-11-30T06:54:14.361Z,68.07
2023-11-30T06:56:42.150Z,68.04
2023-11-30T06:59:09.711Z,68.06
2023-11-30T07:01:37.501Z,68.07
2023-11-30T07:04:06.210Z,68.05
2023-11-30T07:06:33.749Z,68.00
2023-11-30T07:09:01.217Z,67.89
2023-11-30T07:11:28.797Z,67.84
2023-11-30T07:13:56.248Z,67.81
2023-11-30T07:16:25.714Z,67.78
2023-11-30T07:18:53.355Z,67.72
2023-11-30T07:21:20.875Z,67.70
2023-11-30T07:23:48.255Z,67.74
2023-11-30T07:26:16.190Z,67.41
2023-11-30T07:28:43.506Z,67.17
2023-11-30T07:31:18.941Z,67.24
2023-11-30T07:33:47.923Z,67.19
2023-11-30T07:36:15.871Z,67.17
2023-11-30T07:38:43.367Z,66.94
2023-11-30T07:41:12.163Z,66.97
2023-11-30T07:43:39.627Z,67.13
2023-11-30T07:46:08.290Z,67.10
2023-11-30T07:48:35.801Z,67.23
2023-11-30T07:51:03.493Z,67.18
2023-11-30T07:53:30.990Z,67.23
2023-11-30T07:55:58.609Z,67.11
2023-11-30T07:58:26.376Z,67.21
2023-11-30T08:00:53.886Z,66.74
2023-11-30T08:03:21.251Z,66.97
2023-11-30T08:05:49.596Z,67.07
2023-11-30T08:08:18.199Z,66.90
2023-11-30T08:10:45.853Z,66.42
2023-11-30T08:13:14.152Z,66.44
2023-11-30T08:15:42.010Z,65.95
2023-11-30T08:18:10.945Z,66.05
2023-11-30T08:20:38.483Z,65.85
2023-11-30T08:23:06.000Z,65.69
2023-11-30T08:25:33.735Z,65.70
2023-11-30T08:28:01.461Z,65.50
2023-11-30T08:30:30.006Z,65.44
2023-11-30T08:32:59.399Z,65.21
2023-11-30T08:35:28.114Z,65.04
2023-11-30T08:37:55.939Z,64.43
2023-11-30T08:40:23.772Z,64.27
2023-11-30T08:42:51.271Z,64.08
2023-11-30T08:45:18.799Z,63.79
2023-11-30T08:47:46.268Z,63.76
2023-11-30T08:50:15.227Z,63.50
2023-11-30T08:52:42.614Z,63.02
2023-11-30T08:55:11.887Z,62.74
2023-11-30T08:57:42.014Z,62.72
2023-11-30T09:00:14.330Z,62.28
2023-11-30T09:02:42.594Z,61.86
2023-11-30T09:05:12.745Z,61.63
2023-11-30T09:07:40.143Z,61.40
2023-11-30T09:10:08.664Z,60.56
2023-11-30T09:12:36.296Z,60.02
2023-11-30T09:15:07.445Z,60.38
2023-11-30T09:17:36.245Z,60.74
2023-11-30T09:20:06.759Z,60.66
2023-11-30T09:22:36.382Z,60.58
2023-11-30T09:25:04.739Z,60.38
2023-11-30T09:27:32.909Z,60.16
2023-11-30T09:30:01.874Z,59.86
2023-11-30T09:32:29.314Z,60.22
2023-11-30T09:34:56.964Z,60.15
2023-11-30T09:37:24.587Z,58.96
2023-11-30T09:39:52.246Z,58.85
2023-11-30T09:42:20.173Z,59.05
2023-11-30T09:44:47.818Z,59.37
2023-11-30T09:47:16.535Z,59.13
2023-11-30T09:49:44.220Z,58.90
2023-11-30T09:52:11.576Z,58.63
2023-11-30T09:54:39.550Z,58.25
2023-11-30T09:57:07.075Z,58.06
2023-11-30T09:59:34.679Z,56.85
2023-11-30T10:02:05.496Z,56.47
2023-11-30T10:04:32.289Z,56.44
2023-11-30T10:06:59.848Z,56.48
2023-11-30T10:09:27.857Z,56.63
2023-11-30T10:11:55.804Z,57.23
2023-11-30T10:14:23.352Z,57.42
2023-11-30T10:16:50.846Z,57.40
2023-11-30T10:19:18.684Z,57.04
2023-11-30T10:21:46.363Z,56.41
2023-11-30T10:24:13.943Z,56.25
2023-11-30T10:26:44.054Z,56.49
2023-11-30T10:29:15.393Z,56.47
2023-11-30T10:31:44.305Z,56.68
2023-11-30T10:34:14.701Z,56.98
2023-11-30T10:36:44.468Z,56.53
2023-11-30T10:39:21.568Z,56.75
2023-11-30T10:41:55.558Z,56.86
2023-11-30T10:44:30.241Z,56.83
2023-11-30T10:47:00.437Z,56.44
2023-11-30T10:49:29.976Z,56.65
2023-11-30T10:52:03.507Z,56.74
2023-11-30T10:54:42.259Z,56.31
2023-11-30T10:57:13.717Z,56.09
2023-11-30T10:59:46.460Z,56.38
2023-11-30T11:02:15.024Z,56.43
2023-11-30T11:04:43.748Z,56.32
2023-11-30T11:07:14.101Z,56.12
2023-11-30T11:09:45.264Z,56.20
2023-11-30T11:12:26.710Z,56.10
2023-11-30T11:15:14.167Z,55.89
2023-11-30T11:17:52.563Z,55.91
2023-11-30T11:20:27.213Z,56.21
2023-11-30T11:23:09.174Z,56.96
2023-11-30T11:25:46.750Z,56.97
2023-11-30T11:28:17.380Z,57.21
2023-11-30T11:30:51.388Z,57.36
2023-11-30T11:33:23.097Z,57.39
2023-11-30T11:35:51.286Z,57.21
2023-11-30T11:38:19.687Z,57.25
2023-11-30T11:40:49.110Z,57.11
2023-11-30T11:43:17.071Z,56.77
2023-11-30T11:45:45.228Z,56.47
2023-11-30T11:48:13.508Z,56.67
2023-11-30T11:50:41.550Z,56.32
2023-11-30T11:53:09.366Z,56.61
2023-11-30T11:55:38.863Z,56.50
2023-11-30T11:58:06.638Z,56.46
2023-11-30T12:00:34.397Z,56.70
2023-11-30T12:03:07.320Z,56.48
2023-11-30T12:05:35.190Z,56.86
2023-11-30T12:08:03.756Z,57.51
2023-11-30T12:10:43.840Z,57.49
2023-11-30T12:13:14.654Z,57.52
2023-11-30T12:15:43.057Z,57.91
2023-11-30T12:18:14.062Z,57.50
2023-11-30T12:20:42.664Z,57.35
2023-11-30T12:23:11.968Z,57.82
2023-11-30T12:25:39.948Z,57.90
2023-11-30T12:28:08.092Z,58.23
2023-11-30T12:30:37.004Z,58.57
2023-11-30T12:33:04.852Z,58.77
2023-11-30T12:35:32.620Z,58.79
2023-11-30T12:38:02.609Z,58.42
2023-11-30T12:40:30.645Z,58.00
2023-11-30T12:42:58.498Z,58.04
2023-11-30T12:45:27.896Z,57.07
2023-11-30T12:47:56.420Z,56.86
2023-11-30T12:50:24.234Z,56.56
2023-11-30T12:52:52.460Z,56.54
2023-11-30T12:55:20.462Z,56.34
2023-11-30T12:57:48.699Z,56.21
2023-11-30T13:00:17.784Z,56.35
2023-11-30T13:02:47.659Z,56.93
2023-11-30T13:05:16.663Z,57.32
2023-11-30T13:07:44.587Z,57.60
2023-11-30T13:10:12.674Z,57.80
2023-11-30T13:12:41.550Z,58.12
2023-11-30T13:15:12.562Z,58.34
2023-11-30T13:17:40.904Z,58.43
2023-11-30T13:20:12.488Z,58.78
2023-11-30T13:22:47.376Z,59.01
2023-11-30T13:25:15.581Z,59.05
2023-11-30T13:27:48.418Z,59.12
2023-11-30T13:30:18.131Z,59.22
2023-11-30T13:32:46.697Z,59.14
2023-11-30T13:35:14.601Z,59.36
2023-11-30T13:37:42.772Z,59.48
2023-11-30T13:40:11.903Z,59.49
2023-11-30T13:42:39.821Z,59.53
2023-11-30T13:45:08.468Z,59.67
2023-11-30T13:47:36.304Z,59.77
2023-11-30T13:50:06.131Z,59.60
2023-11-30T13:52:34.120Z,59.47
2023-11-30T13:55:01.932Z,59.67
2023-11-30T13:57:29.702Z,59.64
2023-11-30T13:59:57.962Z,59.94
2023-11-30T14:02:25.875Z,60.12
2023-11-30T14:04:54.106Z,60.07
2023-11-30T14:07:22.332Z,60.32
2023-11-30T14:09:50.098Z,60.46
2023-11-30T14:12:17.889Z,60.51
2023-11-30T14:14:46.303Z,60.49
2023-11-30T14:17:14.246Z,60.55
2023-11-30T14:19:42.175Z,60.57
2023-11-30T14:22:10.104Z,60.56
2023-11-30T14:24:40.730Z,60.51
2023-11-30T14:27:12.529Z,60.49
2023-11-30T14:29:40.357Z,60.54
2023-11-30T14:32:08.566Z,60.52
2023-11-30T14:34:37.549Z,60.57
2023-11-30T14:37:05.504Z,60.68
2023-11-30T14:39:33.517Z,60.66
2023-11-30T14:42:01.489Z,60.74
2023-11-30T14:44:29.853Z,60.87
2023-11-30T14:46:57.782Z,60.96
2023-11-30T14:49:25.583Z,61.10
2023-11-30T14:51:53.422Z,61.18
2023-11-30T14:54:21.361Z,61.26
2023-11-30T14:56:50.685Z,61.35
2023-11-30T14:59:18.645Z,61.45
2023-11-30T15:01:47.225Z,61.53
2023-11-30T15:04:16.357Z,61.52
2023-11-30T15:06:44.588Z,61.45
2023-11-30T15:09:14.387Z,61.39
2023-11-30T15:11:43.934Z,61.48
2023-11-30T15:14:14.256Z,61.47
2023-11-30T15:16:42.524Z,61.47
2023-11-30T15:19:10.694Z,61.42
2023-11-30T15:21:38.555Z,61.43
2023-11-30T15:24:07.549Z,61.38
2023-11-30T15:26:35.368Z,61.50
2023-11-30T15:29:03.176Z,61.65
2023-11-30T15:31:32.307Z,61.65
2023-11-30T15:34:01.981Z,61.67
2023-11-30T15:36:30.027Z,61.60
2023-11-30T15:38:59.676Z,61.74
2023-11-30T15:41:27.698Z,61.84
2023-11-30T15:43:55.525Z,61.96
2023-11-30T15:46:23.341Z,62.00
2023-11-30T15:48:51.181Z,62.16
2023-11-30T15:51:20.109Z,62.15
2023-11-30T15:53:47.808Z,62.17
2023-11-30T15:56:21.762Z,62.26
2023-11-30T15:58:49.693Z,62.41
2023-11-30T16:01:17.681Z,62.54
2023-11-30T16:03:45.858Z,62.40
2023-11-30T16:06:13.964Z,62.46
2023-11-30T16:08:41.839Z,62.49
2023-11-30T16:11:14.509Z,62.50
2023-11-30T16:13:42.977Z,62.53
2023-11-30T16:16:15.029Z,62.48
2023-11-30T16:18:43.128Z,62.49
2023-11-30T16:21:16.621Z,62.39
2023-11-30T16:23:47.943Z,62.34
2023-11-30T16:26:21.255Z,62.28
2023-11-30T16:28:49.502Z,62.30
2023-11-30T16:31:18.030Z,62.29
2023-11-30T16:33:45.940Z,62.28
2023-11-30T16:36:13.725Z,62.35
2023-11-30T16:38:42.290Z,62.40
2023-11-30T16:41:10.165Z,62.44
2023-11-30T16:43:38.080Z,62.38
2023-11-30T16:46:07.139Z,62.51
2023-11-30T16:48:35.847Z,62.62
2023-11-30T16:51:07.787Z,62.69
2023-11-30T16:53:35.672Z,62.75
2023-11-30T16:56:04.495Z,62.80
2023-11-30T16:58:32.300Z,62.78
2023-11-30T17:01:00.268Z,62.80
2023-11-30T17:03:29.213Z,62.78
2023-11-30T17:05:57.623Z,62.71
2023-11-30T17:08:25.481Z,62.78
2023-11-30T17:10:53.338Z,62.88
2023-11-30T17:13:23.448Z,62.88
2023-11-30T17:15:52.936Z,62.93
2023-11-30T17:18:21.089Z,62.93
2023-11-30T17:20:48.930Z,62.92
2023-11-30T17:23:17.097Z,62.98
2023-11-30T17:25:44.983Z,62.97
2023-11-30T17:28:13.194Z,62.93
2023-11-30T17:30:41.147Z,62.94
2023-11-30T17:33:09.025Z,62.91
2023-11-30T17:35:37.222Z,62.92
2023-11-30T17:38:05.044Z,62.84
2023-11-30T17:40:34.327Z,62.84
2023-11-30T17:43:03.737Z,62.87
2023-11-30T17:45:31.510Z,62.81
2023-11-30T17:47:59.468Z,62.76
2023-11-30T17:50:28.008Z,62.84
2023-11-30T17:52:56.501Z,62.86
2023-11-30T17:55:24.586Z,62.89
2023-11-30T17:57:52.406Z,62.85
2023-11-30T18:00:20.614Z,62.86
2023-11-30T18:02:49.651Z,63.03
2023-11-30T18:05:17.549Z,63.20
2023-11-30T18:07:45.396Z,63.39
2023-11-30T18:10:13.150Z,63.64
2023-11-30T18:12:40.874Z,63.84
2023-11-30T18:15:09.815Z,63.90
2023-11-30T18:17:37.637Z,63.77
2023-11-30T18:20:06.432Z,63.92
2023-11-30T18:22:34.406Z,64.10
2023-11-30T18:25:05.989Z,64.28
2023-11-30T18:27:33.980Z,64.49
2023-11-30T18:30:01.866Z,64.77
2023-11-30T18:32:29.780Z,65.11
2023-11-30T18:34:57.579Z,65.33
2023-11-30T18:37:25.529Z,65.53
2023-11-30T18:39:53.372Z,65.61
2023-11-30T18:42:21.828Z,65.77
2023-11-30T18:44:50.078Z,66.08
2023-11-30T18:47:18.056Z,66.28
2023-11-30T18:49:45.766Z,66.56
2023-11-30T18:52:15.592Z,66.71
2023-11-30T18:54:45.724Z,66.98
2023-11-30T18:57:14.330Z,67.23
2023-11-30T18:59:42.108Z,67.37
2023-11-30T19:02:10.293Z,67.55
2023-11-30T19:04:39.763Z,67.87
2023-11-30T19:07:07.619Z,68.11
2023-11-30T19:09:35.385Z,68.37
2023-11-30T19:12:03.453Z,68.60
2023-11-30T19:14:36.327Z,68.79
2023-11-30T19:17:04.386Z,69.07
2023-11-30T19:19:32.362Z,69.30
2023-11-30T19:22:00.315Z,69.56
2023-11-30T19:24:28.391Z,69.73
2023-11-30T19:26:56.675Z,70.02
2023-11-30T19:29:24.589Z,70.25
2023-11-30T19:31:52.440Z,70.49
2023-11-30T19:34:20.857Z,70.85
2023-11-30T19:36:48.705Z,70.92
2023-11-30T19:39:16.430Z,71.14
2023-11-30T19:41:48.528Z,71.31
2023-11-30T19:44:18.277Z,71.27
2023-11-30T19:46:48.804Z,71.40
2023-11-30T19:49:18.499Z,71.16
2023-11-30T19:51:46.923Z,71.28
2023-11-30T19:54:14.749Z,71.26
2023-11-30T19:56:42.559Z,71.18
2023-11-30T19:59:10.694Z,71.20
2023-11-30T20:01:38.530Z,71.29
2023-11-30T20:04:06.440Z,71.35
2023-11-30T20:06:34.437Z,71.43
2023-11-30T20:09:02.243Z,71.54
2023-11-30T20:11:30.572Z,71.64
2023-11-30T20:14:01.419Z,71.77
2023-11-30T20:16:29.411Z,71.91
2023-11-30T20:18:57.327Z,72.00
2023-11-30T20:21:26.978Z,72.14
2023-11-30T20:23:55.264Z,72.21
2023-11-30T20:26:23.695Z,72.34
2023-11-30T20:28:52.512Z,72.61
2023-11-30T20:31:20.786Z,72.71
2023-11-30T20:33:50.486Z,72.87
2023-11-30T20:36:19.261Z,73.02
2023-11-30T20:38:47.967Z,73.17
2023-11-30T20:41:17.368Z,73.27
2023-11-30T20:43:45.294Z,73.40
2023-11-30T20:46:14.057Z,73.58
2023-11-30T20:48:41.834Z,73.72
2023-11-30T20:51:09.796Z,73.89
2023-11-30T20:53:37.778Z,73.97
2023-11-30T20:56:07.109Z,74.05
2023-11-30T20:58:35.472Z,74.20
2023-11-30T21:01:03.392Z,74.44
2023-11-30T21:03:31.745Z,74.72
2023-11-30T21:06:01.294Z,74.75
2023-11-30T21:08:31.346Z,74.74
2023-11-30T21:11:03.151Z,74.47
2023-11-30T21:13:32.622Z,74.53
2023-11-30T21:16:00.578Z,74.64
2023-11-30T21:18:28.769Z,74.52
2023-11-30T21:20:56.772Z,74.29
2023-11-30T21:23:24.630Z,74.40
2023-11-30T21:25:53.457Z,74.29
2023-11-30T21:28:21.271Z,74.09
2023-11-30T21:30:49.302Z,74.08
2023-11-30T21:33:17.304Z,74.01
2023-11-30T21:35:45.175Z,73.96
2023-11-30T21:38:13.067Z,73.99
2023-11-30T21:40:40.891Z,74.06
2023-11-30T21:43:08.585Z,74.17
2023-11-30T21:45:36.526Z,74.11
2023-11-30T21:48:04.795Z,74.11
2023-11-30T21:50:32.704Z,74.23
2023-11-30T21:53:00.563Z,74.33
2023-11-30T21:55:28.378Z,74.38
2023-11-30T21:57:56.399Z,74.50
2023-11-30T22:00:24.400Z,74.68
2023-11-30T22:02:52.359Z,74.78
2023-11-30T22:05:26.965Z,74.88
2023-11-30T22:07:49.739Z,74.95
2023-11-30T22:10:19.080Z,75.04
2023-11-30T22:12:46.988Z,75.12
2023-11-30T22:15:14.858Z,75.29
2023-11-30T22:17:42.652Z,75.38
2023-11-30T22:20:11.972Z,75.59
2023-11-30T22:22:39.918Z,75.77
2023-11-30T22:25:08.930Z,75.90
2023-11-30T22:27:36.786Z,76.04
2023-11-30T22:30:06.152Z,76.23
2023-11-30T22:32:35.040Z,76.38
2023-11-30T22:35:03.091Z,76.40
2023-11-30T22:37:30.794Z,76.45
2023-11-30T22:39:58.654Z,76.59
2023-11-30T22:42:27.726Z,76.58
2023-11-30T22:44:56.247Z,76.53
2023-11-30T22:47:25.074Z,76.19
2023-11-30T22:49:52.815Z,76.06
2023-11-30T22:52:22.087Z,75.80
2023-11-30T22:54:50.042Z,75.64
2023-11-30T22:57:17.927Z,75.62
2023-11-30T22:59:45.687Z,75.53
2023-11-30T23:02:13.764Z,75.43
2023-11-30T23:04:42.127Z,75.52
2023-11-30T23:07:10.145Z,75.43
2023-11-30T23:09:39.677Z,75.46
2023-11-30T23:12:08.661Z,75.54
2023-11-30T23:14:36.341Z,75.66
2023-11-30T23:17:04.260Z,75.80
2023-11-30T23:19:32.488Z,75.84
2023-11-30T23:22:00.648Z,75.91
2023-11-30T23:24:31.867Z,76.13
2023-11-30T23:26:58.916Z,76.29
2023-11-30T23:29:26.801Z,76.37
2023-11-30T23:31:54.697Z,76.49
2023-11-30T23:34:22.469Z,76.62
2023-11-30T23:36:50.441Z,76.85
2023-11-30T23:39:18.425Z,77.01
2023-11-30T23:41:46.439Z,77.18
2023-11-30T23:44:14.251Z,77.30
2023-11-30T23:46:42.206Z,77.38
2023-11-30T23:49:10.206Z,77.46
2023-11-30T23:51:38.109Z,77.57
2023-11-30T23:54:05.992Z,77.55
2023-11-30T23:56:33.796Z,77.72
2023-11-30T23:59:01.581Z,77.81
